Time;durP1;ratioP1;P1;durP2;ratioP2;P2;SDS_P1;SDS_P2;PMS_P1;PMS_P2;Temp;Humidity;BMP_temperature;BMP_pressure;BME280_temperature;BME280_humidity;BME280_pressure;Samples;Min_cycle;Max_cycle;Signal;HPM_P1;HPM_P2
2021/04/11 00:02:21;;;;;;;23.10;20.63;;;30.20;94.70;;;;;;5093133;28;20565;-50
2021/04/11 00:04:52;;;;;;;24.77;21.77;;;30.20;94.70;;;;;;5088832;28;20600;-52
2021/04/11 00:07:22;;;;;;;21.85;19.02;;;30.20;94.70;;;;;;5092347;28;20209;-52
2021/04/11 00:09:53;;;;;;;22.17;19.02;;;30.30;94.70;;;;;;5092804;28;20637;-54
2021/04/11 00:12:24;;;;;;;20.98;18.83;;;30.30;94.70;;;;;;5092018;28;20279;-53
2021/04/11 00:14:54;;;;;;;22.48;20.25;;;30.30;94.70;;;;;;5092629;28;20296;-52
2021/04/11 00:17:25;;;;;;;22.58;20.13;;;30.30;94.60;;;;;;5092141;28;20684;-54
2021/04/11 00:19:55;;;;;;;21.88;19.58;;;30.40;94.70;;;;;;5088153;28;20204;-53
2021/04/11 00:22:25;;;;;;;21.30;18.23;;;30.40;94.70;;;;;;5091844;28;20219;-51
2021/04/11 00:24:56;;;;;;;20.10;18.05;;;30.40;94.60;;;;;;5092419;28;20197;-55
2021/04/11 00:27:27;;;;;;;21.33;19.23;;;30.40;94.60;;;;;;5088890;28;20239;-53
2021/04/11 00:29:57;;;;;;;20.20;18.00;;;30.40;94.60;;;;;;5092214;28;20197;-52
2021/04/11 00:32:27;;;;;;;19.30;17.33;;;30.40;94.60;;;;;;5092569;28;20209;-55
2021/04/11 00:34:58;;;;;;;19.42;17.50;;;30.50;94.70;;;;;;5092246;28;20228;-52
2021/04/11 00:37:29;;;;;;;19.50;17.50;;;30.50;94.70;;;;;;5092512;28;20216;-54
2021/04/11 00:40:00;;;;;;;18.83;17.00;;;30.50;94.70;;;;;;5092422;28;20349;-51
2021/04/11 00:42:33;;;;;;;22.50;20.10;;;30.60;94.80;;;;;;5088046;28;20262;-50
2021/04/11 00:45:13;;;;;;;20.55;18.45;;;30.50;94.80;;;;;;5091425;28;20207;-52
2021/04/11 00:47:44;;;;;;;18.90;17.10;;;30.60;94.80;;;;;;5090808;28;20213;-49
2021/04/11 00:50:14;;;;;;;19.52;17.48;;;30.60;94.80;;;;;;5091568;28;20772;-50
2021/04/11 00:52:45;;;;;;;18.20;16.52;;;30.70;94.80;;;;;;5087897;28;20203;-52
2021/04/11 00:55:17;;;;;;;17.27;15.48;;;30.70;94.80;;;;;;5028103;28;20242;-52
2021/04/11 00:57:47;;;;;;;17.00;15.27;;;30.80;94.80;;;;;;5028151;28;20679;-51
2021/04/11 01:00:18;;;;;;;17.48;15.80;;;30.80;94.80;;;;;;5028820;28;20203;-51
2021/04/11 01:02:49;;;;;;;16.98;15.38;;;30.80;94.80;;;;;;5027494;28;20214;-53
2021/04/11 01:05:22;;;;;;;16.90;15.18;;;30.90;94.80;;;;;;5027856;28;20543;-54
2021/04/11 01:07:53;;;;;;;17.42;15.63;;;30.90;94.70;;;;;;5028614;28;20261;-50
2021/04/11 01:10:27;;;;;;;17.58;15.77;;;31.00;94.70;;;;;;5028026;28;20309;-52
2021/04/11 01:12:58;;;;;;;16.45;14.82;;;31.00;94.70;;;;;;4969393;28;20756;-54
2021/04/11 01:15:29;;;;;;;17.33;15.63;;;31.10;94.70;;;;;;4969607;28;20681;-54
2021/04/11 01:18:00;;;;;;;18.02;16.20;;;31.10;94.70;;;;;;4969144;28;20861;-53
2021/04/11 01:20:32;;;;;;;17.23;15.63;;;31.10;94.80;;;;;;5015995;28;20211;-50
2021/04/11 01:23:09;;;;;;;16.98;15.27;;;31.20;94.90;;;;;;5027909;28;20207;-49
2021/04/11 01:25:41;;;;;;;16.77;15.07;;;31.30;94.80;;;;;;4966148;28;20200;-52
2021/04/11 01:28:12;;;;;;;15.07;13.40;;;31.30;94.80;;;;;;4967954;28;20227;-53
2021/04/11 01:30:42;;;;;;;16.77;15.13;;;31.40;94.90;;;;;;4929939;29;20245;-51
2021/04/11 01:33:14;;;;;;;17.00;15.50;;;31.40;94.90;;;;;;4930442;29;20305;-51
2021/04/11 01:35:44;;;;;;;17.20;15.40;;;31.50;94.80;;;;;;4930702;29;20853;-50
2021/04/11 01:38:15;;;;;;;17.50;15.77;;;31.50;94.80;;;;;;4944990;29;20205;-50
2021/04/11 01:40:49;;;;;;;19.23;17.33;;;31.60;94.70;;;;;;4892897;29;20208;-53
2021/04/11 01:43:19;;;;;;;18.02;16.23;;;31.70;94.40;;;;;;4855722;29;20216;-50
2021/04/11 01:45:49;;;;;;;19.08;16.40;;;31.80;94.50;;;;;;4855715;29;20200;-50
2021/04/11 01:48:20;;;;;;;19.23;17.33;;;31.90;94.30;;;;;;4862861;29;20792;-49
2021/04/11 01:50:50;;;;;;;20.90;18.17;;;31.90;94.20;;;;;;4890761;29;20208;-51
2021/04/11 01:53:21;;;;;;;20.45;17.48;;;32.00;94.10;;;;;;4890964;29;20216;-51
2021/04/11 01:55:53;;;;;;;20.80;17.58;;;32.10;94.00;;;;;;4896341;28;20229;-53
2021/04/11 01:58:23;;;;;;;22.55;17.60;;;32.20;93.70;;;;;;4960511;28;20216;-51
2021/04/11 02:01:06;;;;;;;21.95;18.15;;;32.30;93.60;;;;;;4959693;28;20206;-50
2021/04/11 02:03:36;;;;;;;19.83;17.40;;;32.30;93.20;;;;;;4952012;28;20217;-52
2021/04/11 02:06:07;;;;;;;17.30;15.05;;;32.40;93.60;;;;;;4956180;28;20777;-52
2021/04/11 02:08:41;;;;;;;15.43;13.85;;;32.50;93.40;;;;;;4978489;28;20209;-49
2021/04/11 02:11:15;;;;;;;15.48;14.07;;;32.60;93.10;;;;;;4962574;28;20639;-51
2021/04/11 02:13:46;;;;;;;15.75;14.30;;;32.60;92.80;;;;;;5005157;28;20240;-51
2021/04/11 02:16:17;;;;;;;14.95;13.45;;;32.70;92.60;;;;;;5004513;28;20447;-51
2021/04/11 02:18:47;;;;;;;15.07;13.73;;;32.80;92.90;;;;;;4994189;28;20216;-53
2021/04/11 02:21:18;;;;;;;16.38;14.88;;;32.90;92.70;;;;;;5009926;28;20215;-55
2021/04/11 02:23:48;;;;;;;16.77;15.18;;;33.00;92.20;;;;;;5015285;28;20211;-51
2021/04/11 02:26:20;;;;;;;14.85;13.35;;;33.10;91.60;;;;;;4939766;29;20290;-52
2021/04/11 02:28:50;;;;;;;14.45;13.07;;;33.10;91.70;;;;;;4946103;29;20712;-54
2021/04/11 02:31:20;;;;;;;13.82;12.55;;;33.20;91.40;;;;;;4946024;29;20879;-50
2021/04/11 02:33:58;;;;;;;14.38;12.98;;;33.30;91.40;;;;;;4946066;29;20213;-50
2021/04/11 02:36:30;;;;;;;15.40;13.90;;;33.40;91.20;;;;;;4978134;28;20318;-53
2021/04/11 02:39:00;;;;;;;17.17;15.60;;;33.40;90.60;;;;;;4990298;28;20218;-52
2021/04/11 02:41:31;;;;;;;14.40;13.10;;;33.40;87.40;;;;;;5012042;28;20211;-55
2021/04/11 02:44:02;;;;;;;15.45;13.85;;;33.50;88.40;;;;;;5023349;28;20305;-51
2021/04/11 02:46:33;;;;;;;15.30;14.00;;;33.50;88.40;;;;;;5023771;28;20277;-54
2021/04/11 02:49:04;;;;;;;15.02;13.63;;;33.60;88.40;;;;;;5019936;28;20203;-51
2021/04/11 02:51:35;;;;;;;14.70;13.48;;;33.60;89.30;;;;;;5007974;28;20220;-58
2021/04/11 02:54:08;;;;;;;14.68;13.32;;;33.70;89.40;;;;;;5006698;28;20231;-54
2021/04/11 02:56:54;;;;;;;14.15;12.85;;;33.70;89.10;;;;;;5024057;28;20227;-55
2021/04/11 02:59:27;;;;;;;16.35;15.02;;;33.80;86.80;;;;;;5089043;28;20209;-51
2021/04/11 03:01:57;;;;;;;14.40;13.20;;;33.90;84.60;;;;;;5089642;28;20211;-55
2021/04/11 03:04:27;;;;;;;15.45;14.13;;;33.90;85.80;;;;;;5046147;28;20202;-54
2021/04/11 03:06:59;;;;;;;13.85;12.68;;;33.90;85.80;;;;;;5046508;28;20216;-52
2021/04/11 03:09:32;;;;;;;16.30;14.73;;;34.00;86.10;;;;;;5006270;28;21002;-52
2021/04/11 03:12:04;;;;;;;15.13;13.82;;;34.00;84.10;;;;;;5006721;28;20761;-51
2021/04/11 03:14:35;;;;;;;14.13;12.93;;;34.00;84.80;;;;;;4966447;28;20236;-53
2021/04/11 03:17:09;;;;;;;15.27;13.88;;;34.10;85.50;;;;;;4967559;28;20213;-49
2021/04/11 03:19:41;;;;;;;16.48;15.10;;;34.10;85.30;;;;;;4964097;28;20204;-51
2021/04/11 03:22:11;;;;;;;17.10;15.60;;;34.20;84.30;;;;;;4967325;28;20208;-53
2021/04/11 03:24:42;;;;;;;14.60;13.38;;;34.20;83.90;;;;;;4966972;28;20215;-50
2021/04/11 03:27:15;;;;;;;14.43;13.15;;;34.20;84.60;;;;;;4967657;28;20201;-55
2021/04/11 03:29:48;;;;;;;15.05;13.85;;;34.30;85.40;;;;;;4966959;28;20336;-52
2021/04/11 03:32:19;;;;;;;15.88;14.52;;;34.40;85.40;;;;;;4967037;28;20255;-53
2021/04/11 03:34:50;;;;;;;15.60;14.30;;;34.40;84.80;;;;;;4988203;28;20644;-53
2021/04/11 03:37:20;;;;;;;15.55;14.15;;;34.60;84.80;;;;;;5025642;28;20359;-50
2021/04/11 03:39:50;;;;;;;16.25;14.77;;;34.60;84.30;;;;;;5025947;28;20505;-56
2021/04/11 03:42:23;;;;;;;17.42;15.95;;;34.70;84.10;;;;;;5026114;28;20222;-52
2021/04/11 03:44:54;;;;;;;16.45;14.95;;;34.80;83.80;;;;;;5030476;28;20206;-55
2021/04/11 03:47:26;;;;;;;15.48;14.20;;;34.90;84.20;;;;;;5065261;28;20211;-53
2021/04/11 03:49:59;;;;;;;16.35;14.95;;;34.90;83.80;;;;;;5066030;28;20678;-55
2021/04/11 03:52:30;;;;;;;16.92;15.27;;;35.00;83.30;;;;;;5065895;28;20713;-51
2021/04/11 03:55:01;;;;;;;16.45;15.05;;;35.00;83.10;;;;;;5065747;28;20660;-54
2021/04/11 03:57:39;;;;;;;17.15;15.68;;;35.10;82.60;;;;;;5065668;28;20211;-53
2021/04/11 04:00:12;;;;;;;16.95;15.45;;;35.10;82.00;;;;;;5066297;28;20201;-54
2021/04/11 04:02:44;;;;;;;18.35;16.75;;;35.10;82.40;;;;;;5063176;28;20208;-54
2021/04/11 04:05:17;;;;;;;18.83;17.30;;;35.20;82.30;;;;;;5071168;28;20292;-54
2021/04/11 04:07:48;;;;;;;18.83;17.27;;;35.20;82.00;;;;;;5088512;28;20254;-55
2021/04/11 04:10:19;;;;;;;17.40;15.73;;;35.20;81.60;;;;;;5085841;28;20197;-52
2021/04/11 04:13:06;;;;;;;16.80;15.48;;;35.20;81.00;;;;;;5088809;28;20274;-50
2021/04/11 04:15:47;;;;;;;17.10;15.70;;;35.30;81.10;;;;;;5026094;28;20238;-54
2021/04/11 04:18:43;;;;;;;18.90;17.25;;;35.30;80.50;;;;;;5025244;28;20253;-54
2021/04/11 04:21:23;;;;;;;16.23;14.82;;;35.30;77.70;;;;;;5018959;28;20213;-55
2021/04/11 04:23:55;;;;;;;16.13;14.80;;;35.30;80.30;;;;;;5023317;28;20216;-55
2021/04/11 04:26:44;;;;;;;17.88;16.38;;;35.30;80.60;;;;;;5025725;28;20217;-56
2021/04/11 04:29:34;;;;;;;20.95;19.15;;;35.40;80.40;;;;;;5026064;28;20203;-53
2021/04/11 04:32:22;;;;;;;18.42;16.83;;;35.40;77.60;;;;;;5023027;28;20199;-55
2021/04/11 04:35:00;;;;;;;18.58;17.08;;;35.40;79.20;;;;;;5083416;28;20581;-52
2021/04/11 04:37:34;;;;;;;19.67;17.77;;;35.50;78.80;;;;;;5086368;28;20226;-57
2021/04/11 04:40:06;;;;;;;19.02;17.45;;;35.60;78.70;;;;;;5089336;28;20251;-53
2021/04/11 04:42:39;;;;;;;18.77;17.20;;;35.60;79.20;;;;;;5092769;28;20215;-52
2021/04/11 04:45:13;;;;;;;20.17;18.40;;;35.70;79.20;;;;;;5088780;28;20193;-55
2021/04/11 04:47:47;;;;;;;20.75;18.95;;;35.80;77.90;;;;;;5088692;28;20196;-52
2021/04/11 04:50:24;;;;;;;20.42;18.73;;;35.90;76.50;;;;;;5090891;28;20208;-56
2021/04/11 04:53:03;;;;;;;21.17;19.38;;;36.00;76.70;;;;;;5028598;28;20213;-54
2021/04/11 04:55:33;;;;;;;21.42;19.42;;;36.00;76.10;;;;;;5026377;28;20301;-53
2021/04/11 04:58:05;;;;;;;21.45;19.73;;;36.10;75.30;;;;;;5029199;28;20210;-53
2021/04/11 05:00:37;;;;;;;25.77;23.58;;;36.10;74.70;;;;;;5028834;28;20556;-57
2021/04/11 05:03:10;;;;;;;23.88;21.77;;;36.10;73.40;;;;;;5029015;28;20202;-57
2021/04/11 05:05:42;;;;;;;21.70;19.73;;;36.10;73.20;;;;;;5025872;28;20639;-50
2021/04/11 05:08:15;;;;;;;22.48;20.67;;;36.10;74.00;;;;;;4986054;28;20208;-54
2021/04/11 05:10:46;;;;;;;20.00;18.33;;;36.20;74.20;;;;;;4989548;28;20208;-53
2021/04/11 05:13:19;;;;;;;20.52;18.70;;;36.20;74.80;;;;;;4989000;28;20334;-52
2021/04/11 05:15:51;;;;;;;18.58;17.08;;;36.30;74.80;;;;;;4989652;28;20319;-54
2021/04/11 05:18:25;;;;;;;20.02;18.42;;;36.30;75.00;;;;;;4989553;28;20216;-53
2021/04/11 05:20:59;;;;;;;19.38;17.63;;;36.30;74.40;;;;;;4989757;28;20216;-52
2021/04/11 05:23:30;;;;;;;18.40;16.70;;;36.40;74.00;;;;;;5008119;28;20211;-52
2021/04/11 05:26:04;;;;;;;17.92;16.48;;;36.50;74.60;;;;;;5009044;28;20211;-52
2021/04/11 05:28:39;;;;;;;19.90;18.20;;;36.50;74.70;;;;;;5009010;28;20221;-50
2021/04/11 05:31:12;;;;;;;21.80;19.98;;;36.60;75.40;;;;;;4988694;28;20432;-54
2021/04/11 05:33:42;;;;;;;22.65;20.50;;;36.50;73.70;;;;;;5024346;28;20210;-49
2021/04/11 05:36:25;;;;;;;19.75;18.05;;;36.50;73.10;;;;;;5028030;28;20891;-50
2021/04/11 05:39:02;;;;;;;18.58;16.52;;;36.30;73.10;;;;;;5029222;28;20203;-50
2021/04/11 05:41:34;;;;;;;15.82;14.48;;;36.20;73.10;;;;;;5028661;28;20252;-49
2021/04/11 05:44:07;;;;;;;16.42;15.02;;;36.10;73.90;;;;;;5029384;28;20199;-54
2021/04/11 05:46:41;;;;;;;16.45;14.88;;;36.00;74.00;;;;;;5024943;28;20230;-51
2021/04/11 05:49:13;;;;;;;15.80;14.50;;;35.80;74.90;;;;;;5024910;28;20198;-52
2021/04/11 05:51:44;;;;;;;16.35;14.88;;;35.70;75.10;;;;;;5027570;28;20207;-51
2021/04/11 05:54:18;;;;;;;15.90;14.40;;;35.60;76.10;;;;;;5028119;28;20226;-52
2021/04/11 05:56:50;;;;;;;16.08;14.60;;;35.50;76.10;;;;;;5035696;28;20240;-51
2021/04/11 05:59:21;;;;;;;15.15;13.85;;;35.40;76.50;;;;;;5046456;28;20293;-55
2021/04/11 06:01:54;;;;;;;15.18;13.80;;;35.40;76.80;;;;;;5054424;28;20259;-53
2021/04/11 06:04:28;;;;;;;15.90;14.32;;;35.30;77.70;;;;;;5069178;28;20189;-51
2021/04/11 06:06:59;;;;;;;14.90;13.60;;;35.20;78.00;;;;;;5068599;28;20667;-50
2021/04/11 06:09:32;;;;;;;15.25;13.75;;;35.10;78.50;;;;;;5067752;28;20196;-53
2021/04/11 06:12:04;;;;;;;16.60;15.00;;;35.00;78.80;;;;;;5068652;28;20724;-53
2021/04/11 06:14:36;;;;;;;16.63;14.40;;;35.00;79.80;;;;;;5086747;28;20233;-50
2021/04/11 06:17:11;;;;;;;15.80;14.27;;;35.00;79.20;;;;;;4984983;28;20270;-50
2021/04/11 06:19:43;;;;;;;13.43;12.23;;;34.90;79.20;;;;;;4966927;28;20921;-54
2021/04/11 06:22:18;;;;;;;14.18;12.98;;;34.90;78.70;;;;;;4965568;28;20204;-50
2021/04/11 06:24:50;;;;;;;15.73;14.25;;;34.90;78.70;;;;;;4967278;28;20285;-50
2021/04/11 06:27:32;;;;;;;13.55;12.35;;;34.90;78.50;;;;;;4908436;29;20207;-52
2021/04/11 06:30:06;;;;;;;15.65;14.25;;;34.90;78.90;;;;;;4909420;29;20219;-50
2021/04/11 06:32:40;;;;;;;14.73;13.32;;;34.90;78.60;;;;;;4910637;29;20211;-49
2021/04/11 06:35:11;;;;;;;17.27;15.77;;;34.90;77.70;;;;;;4907398;29;20739;-53
2021/04/11 06:37:42;;;;;;;16.98;15.48;;;34.90;76.40;;;;;;4909126;29;20215;-50
2021/04/11 06:40:26;;;;;;;18.55;16.65;;;34.90;76.50;;;;;;4909362;29;20211;-52
2021/04/11 06:43:07;;;;;;;16.42;14.98;;;34.90;75.80;;;;;;4909561;29;20281;-53
2021/04/11 06:45:38;;;;;;;16.45;15.05;;;34.90;76.80;;;;;;4943685;28;20256;-51
2021/04/11 06:49:03;;;;;;;16.45;15.02;;;34.90;77.00;;;;;;5014638;28;20707;-50
2021/04/11 06:52:35;;;;;;;15.10;13.90;;;34.90;77.40;;;;;;5002922;28;20211;-54
2021/04/11 06:55:44;;;;;;;14.95;13.65;;;34.90;77.20;;;;;;4901364;29;20258;-50
2021/04/11 06:58:22;;;;;;;14.60;13.27;;;34.80;75.70;;;;;;5005158;28;20223;-54
2021/04/11 07:01:08;;;;;;;14.70;13.45;;;34.80;75.70;;;;;;5089826;28;20211;-54
2021/04/11 07:04:22;;;;;;;15.25;13.85;;;34.70;75.60;;;;;;5089053;28;20193;-52
2021/04/11 07:07:18;;;;;;;16.35;14.70;;;34.60;75.70;;;;;;5068036;28;20212;-54
2021/04/11 07:09:52;;;;;;;16.13;14.73;;;34.50;75.90;;;;;;5089053;28;20262;-50
2021/04/11 07:13:00;;;;;;;15.60;14.25;;;34.40;75.40;;;;;;5088234;28;20232;-51
2021/04/11 07:16:02;;;;;;;14.68;13.40;;;34.30;75.80;;;;;;5087410;28;20231;-50
2021/04/11 07:19:16;;;;;;;15.88;14.32;;;34.20;76.90;;;;;;5078318;28;20243;-54
2021/04/11 07:22:14;;;;;;;16.48;14.98;;;34.00;77.50;;;;;;5039577;28;20668;-54
2021/04/11 07:25:23;;;;;;;15.80;14.40;;;33.90;78.60;;;;;;5088462;28;20687;-51
2021/04/11 07:28:10;;;;;;;14.70;13.30;;;33.80;78.90;;;;;;5087971;28;20704;-51
2021/04/11 07:30:47;;;;;;;15.68;14.30;;;33.80;79.60;;;;;;5024183;28;20199;-56
2021/04/11 07:33:46;;;;;;;14.35;12.98;;;33.70;79.90;;;;;;4966603;28;20607;-50
2021/04/11 07:36:34;;;;;;;13.85;12.63;;;33.70;80.30;;;;;;4870578;29;20928;-53
2021/04/11 07:39:26;;;;;;;14.13;12.82;;;33.50;80.30;;;;;;4870937;29;20208;-53
2021/04/11 07:42:14;;;;;;;14.10;12.90;;;33.50;80.20;;;;;;4816042;29;20264;-54
2021/04/11 07:45:12;;;;;;;14.30;13.10;;;33.50;80.00;;;;;;4811739;29;20605;-51
2021/04/11 07:47:51;;;;;;;14.40;13.15;;;33.40;80.10;;;;;;4813689;29;20237;-50
2021/04/11 07:50:31;;;;;;;15.75;14.35;;;33.30;79.80;;;;;;4815710;29;20206;-51
2021/04/11 07:53:21;;;;;;;16.70;15.20;;;33.20;80.10;;;;;;4814212;29;20289;-50
2021/04/11 07:56:09;;;;;;;16.85;15.38;;;33.10;80.00;;;;;;4893759;29;20238;-52
2021/04/11 07:58:52;;;;;;;15.27;13.98;;;33.00;79.80;;;;;;4856015;29;20558;-52
2021/04/11 08:01:51;;;;;;;12.75;11.65;;;32.90;79.30;;;;;;4902498;29;20290;-50
2021/04/11 08:04:53;;;;;;;11.75;8.60;;;32.80;78.70;;;;;;4938967;28;20208;-50
2021/04/11 08:07:32;;;;;;;8.05;6.30;;;32.60;76.90;;;;;;4944937;29;20559;-51
2021/04/11 08:10:18;;;;;;;6.68;6.15;;;32.40;76.90;;;;;;4946894;29;20439;-53
2021/04/11 08:12:59;;;;;;;6.53;5.93;;;32.20;76.90;;;;;;4890100;29;20250;-50
2021/04/11 08:15:31;;;;;;;6.40;5.85;;;32.10;76.80;;;;;;4923841;28;20221;-53
2021/04/11 08:18:24;;;;;;;5.22;4.72;;;31.90;76.40;;;;;;4989747;28;20664;-49
2021/04/11 08:21:12;;;;;;;3.63;3.38;;;31.70;77.10;;;;;;4979676;28;20620;-53
2021/04/11 08:24:11;;;;;;;3.45;3.15;;;31.50;75.30;;;;;;4929473;29;20309;-50
2021/04/11 08:27:11;;;;;;;4.30;3.90;;;31.40;75.10;;;;;;4969623;28;20590;-51
2021/04/11 08:30:07;;;;;;;6.18;5.57;;;31.20;75.80;;;;;;4913056;29;20222;-51
2021/04/11 08:32:57;;;;;;;5.18;4.63;;;31.10;76.40;;;;;;4912825;29;20687;-51
2021/04/11 08:36:01;;;;;;;4.75;4.35;;;31.00;77.30;;;;;;4885738;29;20245;-50
2021/04/11 08:38:53;;;;;;;5.22;4.82;;;30.90;77.90;;;;;;4874680;29;20216;-51
2021/04/11 08:41:56;;;;;;;5.45;4.95;;;30.80;78.50;;;;;;4871491;29;20742;-52
2021/04/11 08:44:36;;;;;;;6.35;5.82;;;30.80;78.70;;;;;;4889628;29;20211;-53
2021/04/11 08:47:15;;;;;;;6.25;5.75;;;30.80;78.40;;;;;;4910339;29;20210;-49
2021/04/11 08:49:51;;;;;;;7.65;6.95;;;30.70;78.50;;;;;;4912725;29;20249;-53
2021/04/11 08:52:31;;;;;;;6.53;5.97;;;30.70;78.50;;;;;;4909249;29;20210;-53
2021/04/11 08:55:04;;;;;;;7.53;6.43;;;30.60;79.00;;;;;;4958983;28;20211;-55
2021/04/11 08:57:47;;;;;;;6.72;6.10;;;30.50;79.30;;;;;;4981729;28;20339;-51
2021/04/11 09:00:20;;;;;;;6.10;5.60;;;30.40;80.10;;;;;;5007395;28;20215;-54
2021/04/11 09:03:04;;;;;;;5.63;5.13;;;30.40;81.30;;;;;;5008598;28;20384;-55
2021/04/11 09:05:38;;;;;;;6.65;6.03;;;30.30;81.60;;;;;;5009075;28;20570;-51
2021/04/11 09:08:16;;;;;;;5.97;5.38;;;30.30;81.90;;;;;;4974241;28;20211;-53
2021/04/11 09:11:04;;;;;;;6.90;5.63;;;30.30;82.50;;;;;;4989073;28;20282;-54
2021/04/11 09:13:44;;;;;;;7.85;6.00;;;30.30;82.50;;;;;;4928392;29;20370;-53
2021/04/11 09:16:18;;;;;;;9.55;6.80;;;30.30;82.70;;;;;;4874328;29;20280;-53
2021/04/11 09:18:59;;;;;;;9.55;7.38;;;30.30;82.60;;;;;;4874249;29;20212;-49
2021/04/11 09:21:39;;;;;;;8.80;7.90;;;30.30;82.50;;;;;;4873803;29;20216;-49
2021/04/11 09:24:12;;;;;;;8.23;7.43;;;30.20;82.60;;;;;;4837001;29;20676;-50
2021/04/11 09:27:06;;;;;;;7.68;6.97;;;30.10;82.80;;;;;;4836808;29;20206;-52
2021/04/11 09:29:39;;;;;;;7.70;6.53;;;29.90;83.30;;;;;;4817535;29;20243;-53
2021/04/11 09:32:39;;;;;;;6.45;5.75;;;29.80;83.00;;;;;;4818267;29;20621;-51
2021/04/11 09:35:20;;;;;;;5.22;4.63;;;29.60;84.20;;;;;;4825537;29;20226;-51
2021/04/11 09:38:26;;;;;;;5.30;4.80;;;29.60;84.80;;;;;;4836787;29;20242;-51
2021/04/11 09:41:12;;;;;;;5.72;5.22;;;29.50;85.40;;;;;;4899260;29;20707;-49
2021/04/11 09:44:16;;;;;;;7.03;5.40;;;29.50;85.60;;;;;;4917687;29;20228;-53
2021/04/11 09:47:08;;;;;;;4.10;3.75;;;29.40;86.50;;;;;;4945146;28;20238;-50
2021/04/11 09:50:13;;;;;;;2.90;2.70;;;29.40;85.90;;;;;;5024795;28;20238;-51
2021/04/11 09:52:59;;;;;;;3.15;2.90;;;29.40;85.80;;;;;;4977002;28;20238;-51
2021/04/11 09:55:30;;;;;;;4.72;3.10;;;29.40;85.50;;;;;;5090488;28;20196;-55
2021/04/11 09:58:26;;;;;;;4.95;4.45;;;29.40;85.50;;;;;;5047302;28;20202;-51
2021/04/11 10:00:58;;;;;;;3.75;3.25;;;29.40;86.80;;;;;;5045270;28;20271;-51
2021/04/11 10:03:34;;;;;;;5.80;3.60;;;29.40;86.40;;;;;;5047664;28;20719;-52
2021/04/11 10:06:24;;;;;;;4.90;4.45;;;29.40;87.10;;;;;;5047409;28;20205;-52
2021/04/11 10:09:17;;;;;;;4.95;3.90;;;29.40;88.10;;;;;;5037872;28;20218;-50
2021/04/11 10:11:57;;;;;;;4.43;4.03;;;29.30;87.40;;;;;;5010300;28;20226;-52
2021/04/11 10:14:51;;;;;;;4.10;3.80;;;29.40;87.60;;;;;;5044627;28;20230;-51
2021/04/11 10:17:29;;;;;;;4.43;3.50;;;29.30;87.50;;;;;;4948745;29;20224;-48
2021/04/11 10:20:03;;;;;;;3.92;3.30;;;29.40;87.10;;;;;;4909818;29;20222;-51
2021/04/11 10:22:45;;;;;;;3.28;2.97;;;29.40;86.90;;;;;;4910555;29;20209;-49
2021/04/11 10:25:37;;;;;;;3.45;3.15;;;29.40;87.50;;;;;;4891398;29;20212;-52
2021/04/11 10:28:19;;;;;;;3.85;3.55;;;29.40;88.00;;;;;;4893655;29;20213;-51
2021/04/11 10:30:56;;;;;;;3.63;3.33;;;29.40;87.80;;;;;;4890654;29;21976;-53
2021/04/11 10:33:30;;;;;;;3.42;3.13;;;29.40;87.90;;;;;;4891844;29;20215;-52
2021/04/11 10:36:08;;;;;;;4.32;3.92;;;29.40;87.90;;;;;;4965698;28;20271;-57
2021/04/11 10:38:40;;;;;;;4.22;3.63;;;29.40;88.40;;;;;;4983069;28;20200;-51
2021/04/11 10:41:21;;;;;;;2.92;2.67;;;29.50;88.40;;;;;;4984154;28;20204;-53
2021/04/11 10:44:11;;;;;;;4.50;3.03;;;29.40;88.70;;;;;;4907384;29;20214;-54
2021/04/11 10:46:51;;;;;;;2.75;2.55;;;29.50;88.30;;;;;;4885504;29;20207;-53
2021/04/11 10:49:27;;;;;;;3.22;2.92;;;29.50;88.20;;;;;;4797795;29;20632;-52
2021/04/11 10:52:18;;;;;;;3.17;2.90;;;29.50;88.20;;;;;;4797817;29;20226;-50
2021/04/11 10:55:32;;;;;;;2.83;2.60;;;29.50;89.00;;;;;;4814995;29;20216;-53
2021/04/11 10:58:20;;;;;;;5.75;3.33;;;29.50;88.90;;;;;;4854120;29;20248;-51
2021/04/11 11:00:56;;;;;;;3.47;3.17;;;29.60;89.20;;;;;;4853999;29;20221;-51
2021/04/11 11:04:01;;;;;;;3.70;3.40;;;29.60;89.20;;;;;;4853880;29;20254;-51
2021/04/11 11:06:57;;;;;;;3.45;3.15;;;29.60;89.70;;;;;;4855663;29;20211;-51
2021/04/11 11:09:29;;;;;;;3.78;3.47;;;29.60;89.40;;;;;;4941762;29;20662;-50
2021/04/11 11:12:29;;;;;;;5.18;3.35;;;29.60;89.20;;;;;;4945126;29;20248;-53
2021/04/11 11:15:21;;;;;;;4.28;3.50;;;29.60;89.80;;;;;;4947613;29;20479;-51
2021/04/11 11:18:29;;;;;;;4.68;3.95;;;29.60;89.80;;;;;;4972136;28;20315;-50
2021/04/11 11:21:09;;;;;;;3.95;3.65;;;29.60;89.70;;;;;;4952892;28;20207;-51
2021/04/11 11:23:57;;;;;;;9.45;4.78;;;29.60;89.20;;;;;;4956807;28;21000;-51
2021/04/11 11:26:53;;;;;;;4.30;3.90;;;29.60;89.50;;;;;;4965903;28;20300;-49
2021/04/11 11:29:38;;;;;;;5.20;4.70;;;29.60;89.60;;;;;;4966932;28;20562;-50
2021/04/11 11:32:11;;;;;;;5.72;5.22;;;29.60;89.50;;;;;;4966533;28;20212;-55
2021/04/11 11:34:54;;;;;;;4.78;4.40;;;29.60;89.10;;;;;;4965738;28;20304;-53
2021/04/11 11:37:52;;;;;;;7.43;5.13;;;29.60;89.80;;;;;;4919253;29;20233;-51
2021/04/11 11:40:27;;;;;;;4.40;4.00;;;29.60;90.00;;;;;;4878301;29;20649;-53
2021/04/11 11:43:12;;;;;;;4.47;3.90;;;29.50;89.70;;;;;;4856379;29;20219;-54
2021/04/11 11:45:48;;;;;;;4.13;3.72;;;29.50;89.90;;;;;;4902518;29;20218;-52
2021/04/11 11:48:28;;;;;;;4.82;4.10;;;29.50;90.10;;;;;;4897780;29;20213;-50
2021/04/11 11:51:00;;;;;;;4.47;4.07;;;29.50;90.30;;;;;;4911951;29;20229;-51
2021/04/11 11:53:35;;;;;;;4.97;4.53;;;29.50;90.30;;;;;;4915535;29;20285;-53
2021/04/11 11:56:30;;;;;;;5.15;4.68;;;29.50;90.40;;;;;;4915479;29;20230;-51
2021/04/11 11:59:06;;;;;;;4.85;4.15;;;29.50;90.70;;;;;;4927929;29;20210;-51
2021/04/11 12:01:43;;;;;;;4.68;4.20;;;29.50;90.60;;;;;;4967933;28;20570;-53
2021/04/11 12:04:32;;;;;;;4.75;4.43;;;29.50;90.50;;;;;;5001494;28;20601;-55
2021/04/11 12:07:07;;;;;;;5.15;4.60;;;29.50;90.60;;;;;;5003395;28;20184;-50
2021/04/11 12:09:38;;;;;;;5.20;4.80;;;29.50;90.50;;;;;;5010041;28;20269;-51
2021/04/11 12:12:14;;;;;;;5.30;4.90;;;29.50;90.40;;;;;;5003985;28;20223;-53
2021/04/11 12:14:47;;;;;;;5.57;4.65;;;29.50;90.50;;;;;;4968968;28;20230;-54
2021/04/11 12:17:23;;;;;;;5.60;5.10;;;29.50;90.50;;;;;;4971525;28;20247;-50
2021/04/11 12:19:57;;;;;;;5.85;5.35;;;29.50;90.60;;;;;;5018207;28;20218;-49
2021/04/11 12:22:33;;;;;;;5.85;5.30;;;29.50;90.60;;;;;;5031854;28;20218;-52
2021/04/11 12:25:07;;;;;;;5.82;5.05;;;29.50;90.70;;;;;;5032217;28;20202;-51
2021/04/11 12:27:39;;;;;;;6.38;5.05;;;29.60;90.70;;;;;;4989437;28;20266;-53
2021/04/11 12:30:10;;;;;;;5.80;4.97;;;29.50;90.60;;;;;;4991840;28;20215;-54
2021/04/11 12:32:47;;;;;;;5.68;5.20;;;29.60;90.60;;;;;;4991171;28;20687;-51
2021/04/11 12:35:22;;;;;;;5.13;4.70;;;29.60;90.60;;;;;;4991297;28;20223;-51
2021/04/11 12:37:59;;;;;;;5.90;5.40;;;29.60;90.60;;;;;;4989080;28;20803;-52
2021/04/11 12:40:33;;;;;;;6.53;5.43;;;29.60;90.60;;;;;;5008122;28;20211;-50
2021/04/11 12:43:08;;;;;;;6.65;5.43;;;29.60;90.70;;;;;;5005827;28;20265;-52
2021/04/11 12:45:43;;;;;;;6.00;5.43;;;29.60;90.70;;;;;;4948755;28;20630;-51
2021/04/11 12:48:18;;;;;;;6.47;5.85;;;29.60;90.60;;;;;;4951768;29;20232;-50
2021/04/11 12:50:49;;;;;;;6.55;5.95;;;29.60;90.70;;;;;;4953854;28;20681;-50
2021/04/11 12:53:23;;;;;;;6.00;5.50;;;29.50;90.60;;;;;;4915150;29;20219;-52
2021/04/11 12:55:54;;;;;;;6.63;6.13;;;29.50;90.70;;;;;;4910207;29;20295;-52
2021/04/11 12:58:28;;;;;;;6.50;5.90;;;29.50;90.70;;;;;;4930819;28;20706;-49
2021/04/11 13:01:02;;;;;;;6.13;5.55;;;29.50;90.90;;;;;;4963042;28;20248;-51
2021/04/11 13:03:35;;;;;;;7.03;5.60;;;29.50;90.90;;;;;;5005577;28;20581;-51
2021/04/11 13:06:12;;;;;;;8.35;6.25;;;29.50;90.90;;;;;;5028845;28;20210;-53
2021/04/11 13:08:59;;;;;;;6.93;5.93;;;29.50;91.00;;;;;;4989404;28;20360;-50
2021/04/11 13:11:35;;;;;;;6.43;5.82;;;29.50;91.00;;;;;;4981489;28;20235;-51
2021/04/11 13:14:09;;;;;;;5.70;5.18;;;29.50;90.90;;;;;;5001537;28;20227;-49
2021/04/11 13:16:41;;;;;;;6.03;5.53;;;29.50;91.00;;;;;;4991316;28;20249;-49
2021/04/11 13:19:13;;;;;;;6.25;5.70;;;29.50;91.10;;;;;;5001519;28;20227;-50
2021/04/11 13:21:44;;;;;;;7.38;6.78;;;29.50;91.10;;;;;;4995724;28;20810;-48
2021/04/11 13:24:17;;;;;;;8.63;7.82;;;29.50;91.00;;;;;;5018226;28;20317;-52
2021/04/11 13:26:49;;;;;;;7.90;7.10;;;29.50;91.00;;;;;;5047367;28;20198;-53
2021/04/11 13:29:23;;;;;;;8.20;7.40;;;29.50;91.00;;;;;;5046144;28;20205;-50
2021/04/11 13:31:56;;;;;;;8.23;7.43;;;29.50;91.00;;;;;;5007726;28;20230;-51
2021/04/11 13:34:30;;;;;;;8.85;8.05;;;29.50;91.00;;;;;;5010906;28;20223;-51